Terminal Aerodrome Forecast
Issued by NWS

Home | Current Version | Previous Version | Text Only | Print | Product List | Glossary On
Versions: 1 2 3 4 5 6 7 8 9 10 11 12 13 14 15 16 17 18 19 20 21 22 23 24 25 26 27 28
750
FTUS43 KDLH 270400 AAF
TAFHYR
TAF AMD
KHYR 270400Z 2704/2724 03008KT P6SM VCSH SCT017 BKN020 OVC035
      TEMPO 2704/2705 2SM -SN BR
     FM270900 32006KT P6SM -SN OVC008
     FM271800 30007KT P6SM OVC010
     FM272100 27008KT P6SM OVC020=

USA.gov is the U.S. government's official web portal to all federal, state and local government web resources and services.